createdAt,value
2022-09-30T00:01:59.813Z,98079.31
2022-09-30T00:05:16.743Z,98072.38
2022-09-30T00:08:32.878Z,98078.31
2022-09-30T00:11:50.055Z,98069.97
2022-09-30T00:15:06.425Z,98062.02
2022-09-30T00:18:22.926Z,98058.56
2022-09-30T00:21:39.662Z,98061.79
2022-09-30T00:24:55.724Z,98057.09
2022-09-30T00:28:12.354Z,98065.44
2022-09-30T00:31:30.811Z,98080.49
2022-09-30T00:34:47.164Z,98067.69
2022-09-30T00:38:03.218Z,98064.20
2022-09-30T00:41:19.710Z,98058.47
2022-09-30T00:45:01.112Z,98056.66
2022-09-30T00:48:21.176Z,98045.44
2022-09-30T00:51:42.680Z,98060.52
2022-09-30T00:54:59.840Z,98065.81
2022-09-30T00:58:22.082Z,98077.20
2022-09-30T01:01:38.600Z,98071.27
2022-09-30T01:04:57.132Z,98074.76
2022-09-30T01:08:19.025Z,98077.58
2022-09-30T01:11:37.721Z,98069.83
2022-09-30T01:14:55.711Z,98071.67
2022-09-30T01:18:16.163Z,98063.73
2022-09-30T01:22:16.089Z,98065.31
2022-09-30T01:29:14.105Z,98072.05
2022-09-30T01:32:40.334Z,98076.34
2022-09-30T01:36:11.068Z,98079.62
2022-09-30T01:39:38.756Z,98070.67
2022-09-30T01:42:59.208Z,98070.23
2022-09-30T01:46:21.744Z,98074.93
2022-09-30T01:49:43.553Z,98078.02
2022-09-30T01:53:04.337Z,98076.80
2022-09-30T01:56:26.316Z,98081.73
2022-09-30T01:59:48.014Z,98082.54
2022-09-30T02:03:10.122Z,98077.67
2022-09-30T02:06:31.820Z,98073.22
2022-09-30T02:09:53.482Z,98070.17
2022-09-30T02:13:15.506Z,98069.59
2022-09-30T02:16:37.019Z,98070.17
2022-09-30T02:19:57.373Z,98065.94
2022-09-30T02:23:17.599Z,98065.33
2022-09-30T02:26:37.953Z,98074.75
2022-09-30T02:29:59.913Z,98068.61
2022-09-30T02:33:20.954Z,98068.23
2022-09-30T02:36:43.069Z,98070.48
2022-09-30T02:40:03.917Z,98068.27
2022-09-30T02:43:21.388Z,98065.21
2022-09-30T02:46:46.092Z,98075.00
2022-09-30T02:50:08.128Z,98071.14
2022-09-30T02:53:31.489Z,98076.84
2022-09-30T03:00:05.232Z,98080.94
2022-09-30T03:03:25.848Z,98088.05
2022-09-30T03:06:42.525Z,98083.16
2022-09-30T03:10:03.217Z,98080.50
2022-09-30T03:13:46.625Z,98077.86
2022-09-30T03:17:35.228Z,98092.92
2022-09-30T03:21:00.649Z,98085.17
2022-09-30T03:27:37.795Z,98090.67
2022-09-30T03:31:00.362Z,98079.88
2022-09-30T03:34:22.713Z,98083.95
2022-09-30T03:37:46.313Z,98093.55
2022-09-30T03:41:09.291Z,98092.34
2022-09-30T03:44:30.807Z,98093.58
2022-09-30T03:47:51.298Z,98097.27
2022-09-30T03:51:08.724Z,98098.88
2022-09-30T03:57:40.512Z,98103.37
2022-09-30T04:01:01.781Z,98106.66
2022-09-30T04:04:17.982Z,98106.66
2022-09-30T04:07:34.021Z,98116.41
2022-09-30T04:10:51.593Z,98121.34
2022-09-30T04:14:07.912Z,98116.84
2022-09-30T04:17:23.966Z,98113.39
2022-09-30T04:20:41.241Z,98117.69
2022-09-30T04:23:58.592Z,98123.59
2022-09-30T04:30:48.938Z,98118.28
2022-09-30T04:34:06.210Z,98110.73
2022-09-30T04:37:22.113Z,98119.92
2022-09-30T04:40:38.168Z,98111.77
2022-09-30T04:43:56.311Z,98112.61
2022-09-30T04:47:12.391Z,98120.56
2022-09-30T04:50:28.660Z,98127.09
2022-09-30T04:53:45.116Z,98123.44
2022-09-30T04:57:01.208Z,98123.23
2022-09-30T05:00:22.141Z,98128.16
2022-09-30T05:03:39.127Z,98128.73
2022-09-30T05:06:55.276Z,98136.48
2022-09-30T05:13:27.345Z,98134.64
2022-09-30T05:16:43.285Z,98138.13
2022-09-30T05:19:59.693Z,98141.21
2022-09-30T05:23:16.206Z,98141.41
2022-09-30T05:26:33.780Z,98148.95
2022-09-30T05:29:49.919Z,98151.41
2022-09-30T05:33:05.965Z,98154.05
2022-09-30T05:36:24.522Z,98160.83
2022-09-30T05:42:56.407Z,98152.41
2022-09-30T05:46:12.918Z,98159.56
2022-09-30T05:49:29.259Z,98155.91
2022-09-30T05:52:45.283Z,98161.66
2022-09-30T05:56:01.906Z,98157.72
2022-09-30T05:59:18.087Z,98162.84
2022-09-30T06:02:34.414Z,98162.67
2022-09-30T06:05:51.337Z,98164.75
2022-09-30T06:09:07.563Z,98175.95
2022-09-30T06:12:27.079Z,98172.09
2022-09-30T06:15:48.119Z,98168.43
2022-09-30T06:19:06.940Z,98176.38
2022-09-30T06:22:23.288Z,98178.23
2022-09-30T06:25:40.101Z,98174.36
2022-09-30T06:28:56.427Z,98169.87
2022-09-30T06:32:17.898Z,98176.18
2022-09-30T06:35:34.300Z,98178.66
2022-09-30T06:38:52.195Z,98189.87
2022-09-30T06:42:08.642Z,98185.83
2022-09-30T06:45:31.963Z,98183.18
2022-09-30T06:48:43.515Z,98186.84
2022-09-30T06:52:01.288Z,98173.17
2022-09-30T06:55:21.074Z,98160.34
2022-09-30T06:58:37.403Z,98159.13
2022-09-30T07:01:53.861Z,98175.59
2022-09-30T07:05:10.522Z,98160.75
2022-09-30T07:08:26.697Z,98165.05
2022-09-30T07:15:01.716Z,98188.35
2022-09-30T07:18:19.771Z,98182.62
2022-09-30T07:21:36.128Z,98182.21
2022-09-30T07:28:07.663Z,98198.53
2022-09-30T07:31:34.082Z,98209.52
2022-09-30T07:34:47.948Z,98216.26
2022-09-30T07:38:05.209Z,98207.72
2022-09-30T07:41:27.679Z,98205.91
2022-09-30T07:44:45.144Z,98199.56
2022-09-30T07:48:02.703Z,98206.30
2022-09-30T07:51:20.464Z,98199.61
2022-09-30T07:59:32.275Z,98209.38
2022-09-30T08:02:48.435Z,98214.69
2022-09-30T08:06:10.422Z,98215.53
2022-09-30T08:09:30.337Z,98211.03
2022-09-30T08:12:47.642Z,98212.47
2022-09-30T08:16:06.437Z,98216.60
2022-09-30T08:19:29.422Z,98207.20
2022-09-30T08:22:45.600Z,98219.84
2022-09-30T08:26:07.901Z,98216.98
2022-09-30T08:32:46.304Z,98217.61
2022-09-30T08:36:02.691Z,98225.16
2022-09-30T08:39:19.200Z,98233.95
2022-09-30T08:42:56.849Z,98230.89
2022-09-30T08:46:17.162Z,98226.02
2022-09-30T08:49:55.543Z,98226.85
2022-09-30T08:53:16.629Z,98216.03
2022-09-30T08:56:35.510Z,98227.45
2022-09-30T08:59:55.601Z,98231.95
2022-09-30T09:03:12.476Z,98232.55
2022-09-30T09:06:40.593Z,98228.08
2022-09-30T09:10:08.612Z,98236.47
2022-09-30T09:13:41.876Z,98237.28
2022-09-30T09:17:10.680Z,98227.50
2022-09-30T09:20:30.531Z,98222.58
2022-09-30T09:23:46.960Z,98225.23
2022-09-30T09:27:05.978Z,98225.87
2022-09-30T09:30:25.980Z,98221.39
2022-09-30T09:33:45.484Z,98223.00
2022-09-30T09:37:12.248Z,98228.31
2022-09-30T09:40:36.734Z,98237.71
2022-09-30T09:44:03.464Z,98241.20
2022-09-30T09:47:21.336Z,98242.84
2022-09-30T09:50:44.664Z,98244.08
2022-09-30T09:54:03.414Z,98239.39
2022-09-30T09:57:24.188Z,98245.13
2022-09-30T10:00:56.448Z,98249.01
2022-09-30T10:04:28.240Z,98247.80
2022-09-30T10:07:44.281Z,98255.55
2022-09-30T10:11:04.206Z,98259.43
2022-09-30T10:14:25.381Z,98257.61
2022-09-30T10:17:43.694Z,98264.36
2022-09-30T10:21:06.392Z,98265.80
2022-09-30T10:24:38.649Z,98265.20
2022-09-30T10:28:04.985Z,98272.96
2022-09-30T10:31:29.700Z,98278.69
2022-09-30T10:34:52.511Z,98280.51
2022-09-30T10:38:10.129Z,98286.66
2022-09-30T10:41:32.613Z,98290.92
2022-09-30T10:44:53.495Z,98294.41
2022-09-30T10:48:13.421Z,98296.86
2022-09-30T10:51:39.203Z,98297.28
2022-09-30T10:54:59.343Z,98297.91
2022-09-30T10:58:36.048Z,98296.87
2022-09-30T11:01:59.293Z,98296.48
2022-09-30T11:05:23.697Z,98296.91
2022-09-30T11:08:47.267Z,98296.48
2022-09-30T11:15:28.031Z,98301.00
2022-09-30T11:18:52.406Z,98299.17
2022-09-30T11:22:20.587Z,98303.27
2022-09-30T11:29:14.392Z,98299.98
2022-09-30T11:33:03.398Z,98304.91
2022-09-30T11:36:21.399Z,98310.02
2022-09-30T11:44:32.369Z,98311.03
2022-09-30T11:48:19.542Z,98316.97
2022-09-30T11:51:42.207Z,98316.97
2022-09-30T11:55:30.780Z,98323.55
2022-09-30T11:58:53.803Z,98325.60
2022-09-30T12:02:18.419Z,98324.17
2022-09-30T12:05:40.143Z,98319.48
2022-09-30T12:09:02.959Z,98315.39
2022-09-30T12:15:36.470Z,98316.22
2022-09-30T12:18:57.294Z,98315.41
2022-09-30T12:22:19.105Z,98319.89
2022-09-30T12:25:40.675Z,98319.50
2022-09-30T12:29:16.004Z,98326.45
2022-09-30T12:33:11.809Z,98320.30
2022-09-30T12:36:51.261Z,98322.96
2022-09-30T12:40:32.203Z,98338.91
2022-09-30T12:44:41.493Z,98340.34
2022-09-30T12:48:01.140Z,98344.65
2022-09-30T12:51:26.544Z,98348.95
2022-09-30T12:54:46.642Z,98354.69
2022-09-30T12:58:06.889Z,98353.84
2022-09-30T13:01:27.667Z,98358.77
2022-09-30T13:04:47.550Z,98358.36
2022-09-30T13:08:29.681Z,98367.14
2022-09-30T13:11:51.529Z,98374.73
2022-09-30T13:15:48.924Z,98377.59
2022-09-30T13:19:16.723Z,98387.00
2022-09-30T13:23:06.792Z,98389.66
2022-09-30T13:26:45.453Z,98390.28
2022-09-30T13:30:01.588Z,98398.89
2022-09-30T13:33:51.151Z,98398.89
2022-09-30T13:37:12.127Z,98399.48
2022-09-30T13:46:19.012Z,98401.34
2022-09-30T13:49:44.491Z,98404.63
2022-09-30T13:53:05.017Z,98404.59
2022-09-30T13:56:28.971Z,98397.24
2022-09-30T14:00:00.995Z,98390.30
2022-09-30T14:03:49.705Z,98396.42
2022-09-30T14:07:13.933Z,98399.70
2022-09-30T14:10:43.500Z,98397.25
2022-09-30T14:14:11.935Z,98405.86
2022-09-30T14:18:11.105Z,98402.77
2022-09-30T14:21:40.032Z,98406.86
2022-09-30T14:24:57.932Z,98415.88
2022-09-30T14:31:32.046Z,98425.08
2022-09-30T14:34:52.968Z,98426.52
2022-09-30T14:38:25.918Z,98427.34
2022-09-30T14:45:10.924Z,98432.05
2022-09-30T14:48:32.631Z,98437.80
2022-09-30T14:51:53.049Z,98439.42
2022-09-30T14:55:09.675Z,98434.48
2022-09-30T15:01:46.197Z,98440.02
2022-09-30T15:05:05.915Z,98438.80
2022-09-30T15:08:27.031Z,98456.80
2022-09-30T15:15:02.475Z,98458.23
2022-09-30T15:18:48.273Z,98447.17
2022-09-30T15:22:10.176Z,98444.94
2022-09-30T15:25:28.933Z,98447.78
2022-09-30T15:28:48.694Z,98463.32
2022-09-30T15:32:13.315Z,98471.72
2022-09-30T15:35:30.781Z,98472.34
2022-09-30T15:38:50.740Z,98473.95
2022-09-30T15:42:07.331Z,98473.95
2022-09-30T15:45:42.223Z,98480.12
2022-09-30T15:48:59.483Z,98492.79
2022-09-30T15:52:46.041Z,98489.74
2022-09-30T15:56:04.063Z,98485.23
2022-09-30T15:59:24.029Z,98496.08
2022-09-30T16:02:40.499Z,98509.97
2022-09-30T16:05:56.956Z,98505.67
2022-09-30T16:09:25.893Z,98503.22
2022-09-30T16:12:47.512Z,98507.48
2022-09-30T16:16:06.109Z,98498.10
2022-09-30T16:19:29.263Z,98501.36
2022-09-30T16:23:02.708Z,98498.70
2022-09-30T16:29:37.204Z,98510.56
2022-09-30T16:32:56.726Z,98525.88
2022-09-30T16:36:15.637Z,98533.05
2022-09-30T16:39:29.650Z,98538.38
2022-09-30T16:42:46.045Z,98540.22
2022-09-30T16:46:05.409Z,98544.91
2022-09-30T16:49:27.612Z,98554.11
2022-09-30T16:52:44.358Z,98549.80
2022-09-30T16:56:01.862Z,98538.36
2022-09-30T16:59:23.275Z,98527.73
2022-09-30T17:02:41.834Z,98531.41
2022-09-30T17:05:58.896Z,98544.07
2022-09-30T17:09:15.831Z,98550.23
2022-09-30T17:15:48.512Z,98550.86
2022-09-30T17:19:05.527Z,98546.55
2022-09-30T17:22:23.074Z,98558.20
2022-09-30T17:25:41.562Z,98547.57
2022-09-30T17:29:14.696Z,98554.70
2022-09-30T17:32:20.163Z,98559.85
2022-09-30T17:35:39.227Z,98558.41
2022-09-30T17:38:57.405Z,98557.37
2022-09-30T17:42:30.407Z,98560.23
2022-09-30T17:45:49.433Z,98570.87
2022-09-30T17:49:06.611Z,98588.67
2022-09-30T17:52:24.842Z,98595.00
2022-09-30T17:55:43.690Z,98596.24
2022-09-30T17:59:03.014Z,98599.31
2022-09-30T18:02:22.825Z,98604.83
2022-09-30T18:05:45.105Z,98610.55
2022-09-30T18:09:03.024Z,98609.31
2022-09-30T18:12:20.316Z,98614.63
2022-09-30T18:15:39.178Z,98625.27
2022-09-30T18:18:58.806Z,98620.96
2022-09-30T18:22:17.569Z,98622.17
2022-09-30T18:25:37.439Z,98620.53
2022-09-30T18:28:57.777Z,98620.53
2022-09-30T18:32:15.384Z,98619.52
2022-09-30T18:35:39.254Z,98620.53
2022-09-30T18:38:59.790Z,98618.91
2022-09-30T18:45:34.060Z,98633.45
2022-09-30T18:48:57.132Z,98633.66
2022-09-30T18:52:16.009Z,98626.25
2022-09-30T18:55:34.262Z,98627.91
2022-09-30T19:02:07.848Z,98634.61
2022-09-30T19:05:25.967Z,98631.37
2022-09-30T19:08:44.555Z,98633.02
2022-09-30T19:12:03.093Z,98631.16
2022-09-30T19:15:25.395Z,98638.13
2022-09-30T19:18:45.544Z,98632.58
2022-09-30T19:22:03.826Z,98640.53
2022-09-30T19:25:21.546Z,98644.20
2022-09-30T19:28:43.601Z,98635.99
2022-09-30T19:32:00.872Z,98633.94
2022-09-30T19:35:25.114Z,98624.35
2022-09-30T19:38:42.975Z,98622.09
2022-09-30T19:45:17.538Z,98621.26
2022-09-30T19:48:38.484Z,98620.19
2022-09-30T19:51:57.205Z,98613.86
2022-09-30T19:55:17.017Z,98627.95
2022-09-30T20:01:50.749Z,98639.16
2022-09-30T20:05:08.370Z,98640.98
2022-09-30T20:08:25.671Z,98637.78
2022-09-30T20:11:49.126Z,98642.09
2022-09-30T20:15:20.520Z,98644.98
2022-09-30T20:18:39.717Z,98645.98
2022-09-30T20:21:57.794Z,98633.91
2022-09-30T20:25:18.334Z,98636.37
2022-09-30T20:31:52.077Z,98641.88
2022-09-30T20:35:09.051Z,98657.63
2022-09-30T20:38:27.219Z,98655.61
2022-09-30T20:41:46.377Z,98660.73
2022-09-30T20:45:03.966Z,98662.38
2022-09-30T20:48:20.736Z,98658.06
2022-09-30T20:51:38.884Z,98663.15
2022-09-30T20:54:55.236Z,98654.36
2022-09-30T20:58:13.453Z,98657.02
2022-09-30T21:01:32.131Z,98649.05
2022-09-30T21:04:52.550Z,98656.19
2022-09-30T21:08:08.005Z,98664.59
2022-09-30T21:11:28.114Z,98664.59
2022-09-30T21:14:45.030Z,98664.59
2022-09-30T21:18:04.764Z,98667.45
2022-09-30T21:21:25.521Z,98669.91
2022-09-30T21:24:41.791Z,98672.56
2022-09-30T21:27:58.838Z,98664.39
2022-09-30T21:31:21.153Z,98656.86
2022-09-30T21:34:37.652Z,98656.05
2022-09-30T21:37:55.926Z,98655.41
2022-09-30T21:41:14.038Z,98652.95
2022-09-30T21:44:30.435Z,98657.46
2022-09-30T21:47:46.501Z,98648.20
2022-09-30T21:51:02.754Z,98662.71
2022-09-30T21:54:20.058Z,98664.70
2022-09-30T22:04:07.819Z,98655.68
2022-09-30T22:07:25.910Z,98661.80
2022-09-30T22:10:42.472Z,98661.00
2022-09-30T22:17:16.508Z,98656.32
2022-09-30T22:20:33.261Z,98658.98
2022-09-30T22:23:51.373Z,98648.72
2022-09-30T22:30:23.547Z,98651.00
2022-09-30T22:33:53.678Z,98649.73
2022-09-30T22:37:23.897Z,98646.63
2022-09-30T22:40:40.129Z,98649.13
2022-09-30T22:43:56.202Z,98640.07
2022-09-30T22:47:13.669Z,98641.08
2022-09-30T22:50:30.369Z,98648.81
2022-09-30T22:53:46.369Z,98649.81
2022-09-30T22:57:04.439Z,98644.91
2022-09-30T23:00:22.955Z,98655.90
2022-09-30T23:03:39.952Z,98654.84
2022-09-30T23:06:57.715Z,98661.98
2022-09-30T23:10:17.673Z,98657.67
2022-09-30T23:13:36.175Z,98663.18
2022-09-30T23:16:52.657Z,98651.75
2022-09-30T23:20:09.700Z,98655.81
2022-09-30T23:23:25.854Z,98651.31
2022-09-30T23:26:42.066Z,98644.55
2022-09-30T23:29:58.206Z,98643.70
2022-09-30T23:33:16.007Z,98660.48
2022-09-30T23:36:34.615Z,98669.84
2022-09-30T23:39:50.807Z,98667.20
2022-09-30T23:43:07.964Z,98654.72
2022-09-30T23:46:25.431Z,98661.88
2022-09-30T23:49:43.888Z,98646.76
2022-09-30T23:52:58.094Z,98652.44
2022-09-30T23:56:17.498Z,98656.69
2022-09-30T23:59:33.743Z,98670.97
